createdAt,value
2018-02-24T00:01:49.582Z,30.63
2018-02-24T00:04:18.060Z,30.33
2018-02-24T00:06:47.012Z,27.73
2018-02-24T00:09:16.261Z,30.53
2018-02-24T00:11:44.510Z,28.77
2018-02-24T00:14:12.978Z,29.63
2018-02-24T00:16:41.952Z,30.17
2018-02-24T00:19:11.568Z,30.70
2018-02-24T00:21:39.749Z,29.87
2018-02-24T00:24:08.774Z,30.37
2018-02-24T00:26:37.015Z,28.77
2018-02-24T00:29:06.451Z,28.40
2018-02-24T00:31:34.848Z,31.60
2018-02-24T00:34:03.958Z,29.23
2018-02-24T00:36:32.162Z,29.93
2018-02-24T00:39:00.360Z,27.77
2018-02-24T00:41:30.616Z,29.67
2018-02-24T00:44:00.078Z,29.77
2018-02-24T00:46:28.606Z,29.20
2018-02-24T00:48:57.632Z,30.33
2018-02-24T00:54:01.147Z,29.57
2018-02-24T00:56:30.166Z,30.17
2018-02-24T00:58:59.347Z,30.97
2018-02-24T01:01:29.565Z,32.23
2018-02-24T01:03:57.756Z,29.27
2018-02-24T01:06:26.086Z,29.90
2018-02-24T01:08:54.348Z,29.37
2018-02-24T01:11:22.572Z,32.13
2018-02-24T01:13:50.852Z,32.30
2018-02-24T01:16:19.110Z,33.83
2018-02-24T01:18:47.642Z,33.07
2018-02-24T01:21:15.899Z,33.23
2018-02-24T01:23:44.958Z,32.33
2018-02-24T01:26:13.482Z,30.07
2018-02-24T01:28:42.461Z,35.43
2018-02-24T01:31:10.768Z,35.67
2018-02-24T01:33:39.190Z,33.80
2018-02-24T01:36:08.129Z,34.40
2018-02-24T01:38:36.538Z,34.47
2018-02-24T01:41:04.766Z,32.63
2018-02-24T01:43:33.473Z,35.23
2018-02-24T01:46:01.740Z,32.10
2018-02-24T01:48:30.109Z,32.97
2018-02-24T01:50:59.302Z,34.77
2018-02-24T01:53:28.324Z,33.33
2018-02-24T01:58:24.377Z,32.47
2018-02-24T02:00:52.839Z,33.13
2018-02-24T02:03:21.093Z,34.53
2018-02-24T02:05:49.330Z,33.23
2018-02-24T02:08:18.300Z,35.43
2018-02-24T02:10:46.497Z,35.07
2018-02-24T02:13:14.715Z,34.50
2018-02-24T02:15:43.104Z,34.77
2018-02-24T02:18:12.159Z,35.60
2018-02-24T02:20:40.714Z,35.70
2018-02-24T02:23:08.998Z,34.37
2018-02-24T02:25:37.245Z,33.27
2018-02-24T02:28:06.596Z,35.93
2018-02-24T02:30:35.798Z,36.10
2018-02-24T02:33:04.034Z,35.10
2018-02-24T02:35:32.571Z,37.10
2018-02-24T02:38:00.774Z,34.47
2018-02-24T02:40:29.835Z,34.50
2018-02-24T02:42:58.089Z,38.13
2018-02-24T02:45:26.317Z,33.47
2018-02-24T02:47:55.291Z,34.70
2018-02-24T02:50:23.986Z,36.53
2018-02-24T02:52:52.314Z,36.13
2018-02-24T02:55:20.597Z,36.40
2018-02-24T02:57:48.805Z,37.10
2018-02-24T03:00:17.097Z,37.60
2018-02-24T03:02:46.066Z,36.97
2018-02-24T03:05:14.298Z,38.90
2018-02-24T03:07:43.324Z,37.40
2018-02-24T03:10:11.633Z,35.80
2018-02-24T03:12:39.830Z,38.20
2018-02-24T03:15:08.140Z,38.83
2018-02-24T03:17:36.467Z,40.37
2018-02-24T03:20:05.600Z,38.87
2018-02-24T03:22:33.812Z,39.47
2018-02-24T03:25:02.014Z,38.70
2018-02-24T03:27:31.005Z,37.83
2018-02-24T03:30:00.009Z,37.23
2018-02-24T03:32:28.218Z,37.00
2018-02-24T03:34:56.434Z,36.83
2018-02-24T03:37:24.696Z,38.03
2018-02-24T03:39:52.916Z,35.30
2018-02-24T03:42:21.118Z,36.07
2018-02-24T03:44:49.357Z,38.47
2018-02-24T03:47:18.325Z,37.13
2018-02-24T03:49:46.557Z,40.13
2018-02-24T03:52:14.862Z,37.03
2018-02-24T03:54:43.073Z,37.83
2018-02-24T03:57:12.045Z,36.60
2018-02-24T03:59:40.370Z,38.20
2018-02-24T04:02:08.616Z,40.27
2018-02-24T04:04:36.945Z,38.10
2018-02-24T04:07:05.204Z,37.10
2018-02-24T04:09:33.545Z,36.60
2018-02-24T04:12:02.557Z,38.43
2018-02-24T04:14:30.898Z,36.97
2018-02-24T04:16:59.109Z,39.07
2018-02-24T04:19:27.364Z,39.70
2018-02-24T04:21:56.566Z,39.27
2018-02-24T04:24:25.600Z,37.93
2018-02-24T04:26:53.831Z,37.87
2018-02-24T04:29:22.960Z,38.57
2018-02-24T04:31:51.164Z,39.40
2018-02-24T04:34:19.364Z,38.47
2018-02-24T04:36:47.600Z,38.17
2018-02-24T04:39:15.805Z,37.70
2018-02-24T04:41:44.118Z,37.30
2018-02-24T04:44:13.333Z,37.17
2018-02-24T04:46:42.361Z,36.63
2018-02-24T04:49:10.657Z,36.53
2018-02-24T04:51:38.969Z,36.60
2018-02-24T04:54:07.348Z,37.13
2018-02-24T04:56:35.693Z,37.80
2018-02-24T04:59:03.955Z,36.03
2018-02-24T05:01:32.200Z,38.63
2018-02-24T05:04:00.417Z,37.20
2018-02-24T05:06:28.898Z,37.40
2018-02-24T05:08:57.101Z,36.77
2018-02-24T05:11:26.062Z,40.03
2018-02-24T05:13:54.601Z,41.17
2018-02-24T05:16:22.796Z,38.43
2018-02-24T05:18:51.046Z,39.53
2018-02-24T05:21:19.260Z,40.37
2018-02-24T05:23:47.485Z,38.40
2018-02-24T05:26:15.688Z,37.37
2018-02-24T05:28:44.037Z,41.17
2018-02-24T05:31:12.400Z,39.07
2018-02-24T05:33:41.364Z,38.97
2018-02-24T05:36:09.621Z,38.03
2018-02-24T05:38:37.882Z,40.07
2018-02-24T05:41:06.132Z,36.23
2018-02-24T05:43:34.360Z,36.40
2018-02-24T05:46:02.564Z,38.37
2018-02-24T05:48:31.559Z,38.37
2018-02-24T05:50:59.866Z,37.40
2018-02-24T05:53:28.061Z,38.13
2018-02-24T05:55:56.285Z,37.80
2018-02-24T05:58:24.513Z,37.47
2018-02-24T06:00:52.734Z,40.00
2018-02-24T06:03:20.960Z,38.83
2018-02-24T06:05:49.188Z,39.13
2018-02-24T06:08:17.384Z,37.23
2018-02-24T06:10:45.659Z,38.87
2018-02-24T06:13:14.112Z,43.33
2018-02-24T06:15:42.321Z,42.30
2018-02-24T06:18:10.525Z,41.93
2018-02-24T06:20:38.760Z,40.67
2018-02-24T06:23:06.976Z,38.10
2018-02-24T06:25:35.187Z,39.93
2018-02-24T06:28:03.424Z,36.67
2018-02-24T06:30:31.756Z,37.43
2018-02-24T06:33:00.761Z,39.67
2018-02-24T06:35:29.065Z,37.83
2018-02-24T06:37:57.296Z,38.70
2018-02-24T06:40:26.537Z,36.80
2018-02-24T06:42:54.822Z,39.57
2018-02-24T06:45:23.058Z,37.93
2018-02-24T06:47:51.260Z,40.40
2018-02-24T06:50:19.549Z,37.60
2018-02-24T06:52:47.754Z,39.77
2018-02-24T06:55:15.957Z,44.23
2018-02-24T06:57:45.012Z,40.77
2018-02-24T07:00:13.328Z,40.83
2018-02-24T07:02:42.304Z,40.63
2018-02-24T07:05:11.384Z,39.70
2018-02-24T07:07:39.594Z,40.03
2018-02-24T07:10:08.594Z,38.90
2018-02-24T07:12:36.833Z,40.30
2018-02-24T07:15:05.036Z,39.50
2018-02-24T07:17:34.020Z,40.57
2018-02-24T07:20:03.048Z,39.53
2018-02-24T07:22:31.305Z,39.83
2018-02-24T07:24:59.552Z,39.57
2018-02-24T07:27:27.768Z,38.97
2018-02-24T07:29:56.004Z,35.90
2018-02-24T07:32:24.339Z,23.80
2018-02-24T07:34:52.597Z,22.50
2018-02-24T07:37:20.846Z,22.97
2018-02-24T07:39:49.871Z,22.97
2018-02-24T07:42:18.133Z,23.13
2018-02-24T07:44:46.357Z,22.43
2018-02-24T07:47:14.593Z,21.87
2018-02-24T07:49:42.836Z,22.03
2018-02-24T07:52:11.818Z,21.47
2018-02-24T07:54:40.852Z,22.27
2018-02-24T07:57:09.102Z,22.53
2018-02-24T07:59:37.305Z,21.83
2018-02-24T08:02:05.564Z,21.43
2018-02-24T08:04:33.806Z,21.57
2018-02-24T08:07:02.017Z,21.60
2018-02-24T08:11:53.849Z,22.17
2018-02-24T08:14:22.842Z,21.03
2018-02-24T08:16:51.979Z,19.70
2018-02-24T08:19:20.333Z,18.93
2018-02-24T08:21:48.650Z,21.07
2018-02-24T08:24:16.861Z,19.50
2018-02-24T08:26:46.505Z,19.13
2018-02-24T08:29:15.612Z,23.13
2018-02-24T08:31:43.905Z,18.90
2018-02-24T08:34:12.270Z,17.43
2018-02-24T08:36:40.651Z,15.93
2018-02-24T08:39:09.098Z,21.17
2018-02-24T08:41:38.182Z,22.80
2018-02-24T08:44:06.479Z,25.10
2018-02-24T08:46:34.747Z,23.67
2018-02-24T08:49:03.866Z,24.00
2018-02-24T08:51:32.933Z,24.37
2018-02-24T08:54:01.970Z,23.37
2018-02-24T08:56:30.199Z,22.97
2018-02-24T08:59:03.468Z,24.04
2018-02-24T09:01:31.713Z,21.17
2018-02-24T09:04:00.043Z,23.30
2018-02-24T09:06:28.276Z,22.17
2018-02-24T09:08:56.697Z,20.00
2018-02-24T09:11:25.669Z,21.20
2018-02-24T09:13:54.042Z,19.10
2018-02-24T09:16:22.280Z,15.77
2018-02-24T09:18:50.691Z,15.37
2018-02-24T09:21:19.632Z,14.67
2018-02-24T09:23:47.833Z,15.27
2018-02-24T09:26:16.057Z,15.37
2018-02-24T09:28:44.281Z,15.27
2018-02-24T09:31:12.670Z,14.63
2018-02-24T09:33:40.888Z,14.30
2018-02-24T09:36:09.108Z,14.33
2018-02-24T09:38:37.399Z,14.53
2018-02-24T09:41:05.598Z,14.17
2018-02-24T09:43:33.849Z,14.03
2018-02-24T09:46:02.209Z,14.20
2018-02-24T09:48:30.563Z,13.77
2018-02-24T09:50:59.540Z,13.53
2018-02-24T09:53:28.610Z,13.73
2018-02-24T09:55:56.848Z,13.47
2018-02-24T09:58:25.180Z,12.57
2018-02-24T10:00:53.430Z,13.17
2018-02-24T10:03:21.638Z,12.50
2018-02-24T10:05:50.605Z,13.00
2018-02-24T10:08:18.903Z,12.30
2018-02-24T10:10:47.068Z,12.13
2018-02-24T10:13:15.394Z,12.77
2018-02-24T10:15:43.673Z,13.20
2018-02-24T10:18:11.889Z,12.17
2018-02-24T10:20:40.097Z,12.00
2018-02-24T10:23:09.131Z,13.10
2018-02-24T10:25:37.340Z,12.17
2018-02-24T10:28:05.545Z,12.07
2018-02-24T10:30:33.792Z,12.63
2018-02-24T10:33:02.040Z,11.93
2018-02-24T10:35:30.291Z,11.77
2018-02-24T10:37:58.589Z,11.47
2018-02-24T10:40:26.907Z,11.70
2018-02-24T10:42:55.117Z,11.57
2018-02-24T10:45:24.088Z,17.33
2018-02-24T10:47:53.056Z,11.53
2018-02-24T10:50:21.265Z,11.80
2018-02-24T10:52:50.441Z,11.97
2018-02-24T10:55:19.420Z,13.17
2018-02-24T10:57:47.638Z,15.10
2018-02-24T11:00:16.407Z,13.20
2018-02-24T11:02:44.650Z,12.10
2018-02-24T11:05:12.842Z,11.50
2018-02-24T11:07:41.090Z,11.20
2018-02-24T11:10:09.324Z,11.87
2018-02-24T11:12:37.523Z,12.00
2018-02-24T11:15:05.776Z,11.20
2018-02-24T11:17:34.021Z,12.10
2018-02-24T11:20:02.219Z,12.13
2018-02-24T11:22:31.253Z,13.50
2018-02-24T11:24:59.448Z,12.87
2018-02-24T11:27:27.720Z,14.00
2018-02-24T11:29:56.017Z,12.97
2018-02-24T11:32:24.240Z,12.60
2018-02-24T11:34:52.443Z,11.80
2018-02-24T11:37:20.703Z,12.87
2018-02-24T11:39:48.899Z,14.13
2018-02-24T11:42:17.273Z,12.50
2018-02-24T11:44:45.554Z,13.20
2018-02-24T11:47:13.749Z,13.00
2018-02-24T11:49:42.722Z,12.50
2018-02-24T11:52:10.964Z,13.70
2018-02-24T11:54:39.161Z,13.87
2018-02-24T11:57:07.635Z,12.00
2018-02-24T11:59:35.878Z,12.50
2018-02-24T12:02:04.073Z,12.93
2018-02-24T12:04:32.310Z,13.93
2018-02-24T12:07:01.322Z,14.47
2018-02-24T12:09:29.577Z,13.37
2018-02-24T12:11:58.564Z,13.13
2018-02-24T12:14:26.778Z,13.87
2018-02-24T12:16:55.026Z,13.17
2018-02-24T12:19:24.838Z,13.30
2018-02-24T12:21:53.875Z,12.20
2018-02-24T12:24:22.061Z,11.40
2018-02-24T12:26:50.274Z,11.90
2018-02-24T12:29:18.562Z,12.07
2018-02-24T12:31:46.753Z,12.53
2018-02-24T12:34:15.667Z,13.30
2018-02-24T12:36:43.908Z,12.43
2018-02-24T12:39:12.116Z,11.37
2018-02-24T12:41:40.337Z,10.13
2018-02-24T12:44:09.350Z,9.47
2018-02-24T12:46:38.417Z,8.33
2018-02-24T12:49:06.552Z,8.90
2018-02-24T12:51:34.823Z,7.90
2018-02-24T12:54:03.013Z,8.30
2018-02-24T12:56:31.243Z,9.00
2018-02-24T12:58:59.457Z,9.20
2018-02-24T13:01:27.669Z,8.63
2018-02-24T13:03:55.902Z,10.07
2018-02-24T13:06:24.137Z,10.90
2018-02-24T13:08:53.124Z,10.17
2018-02-24T13:11:22.197Z,11.50
2018-02-24T13:13:50.430Z,11.67
2018-02-24T13:16:18.700Z,10.87
2018-02-24T13:18:47.682Z,11.23
2018-02-24T13:21:16.773Z,11.03
2018-02-24T13:23:45.736Z,16.33
2018-02-24T13:26:13.949Z,12.20
2018-02-24T13:28:42.981Z,12.37
2018-02-24T13:31:11.180Z,12.77
2018-02-24T13:33:39.485Z,13.67
2018-02-24T13:36:08.553Z,13.33
2018-02-24T13:38:36.793Z,13.10
2018-02-24T13:41:05.052Z,13.47
2018-02-24T13:43:33.391Z,12.83
2018-02-24T13:46:01.628Z,13.40
2018-02-24T13:48:29.833Z,13.17
2018-02-24T13:50:58.227Z,12.87
2018-02-24T13:53:26.412Z,13.00
2018-02-24T13:55:55.434Z,12.87
2018-02-24T13:58:23.717Z,12.03
2018-02-24T14:00:51.944Z,13.47
2018-02-24T14:03:20.381Z,13.00
2018-02-24T14:05:49.352Z,12.70
2018-02-24T14:08:17.568Z,12.90
2018-02-24T14:10:45.759Z,13.23
2018-02-24T14:13:14.048Z,12.70
2018-02-24T14:15:42.243Z,13.63
2018-02-24T14:18:11.209Z,12.87
2018-02-24T14:20:39.545Z,13.20
2018-02-24T14:23:07.804Z,13.47
2018-02-24T14:25:36.132Z,13.33
2018-02-24T14:28:04.371Z,13.43
2018-02-24T14:30:32.612Z,14.20
2018-02-24T14:33:01.642Z,14.00
2018-02-24T14:35:29.982Z,14.17
2018-02-24T14:37:58.953Z,14.17
2018-02-24T14:40:27.177Z,14.43
2018-02-24T14:42:55.495Z,13.30
2018-02-24T14:45:23.762Z,13.93
2018-02-24T14:47:51.977Z,15.40
2018-02-24T14:50:20.373Z,13.50
2018-02-24T14:52:49.345Z,15.30
2018-02-24T14:55:18.357Z,14.53
2018-02-24T14:57:47.392Z,13.97
2018-02-24T15:02:36.520Z,13.67
2018-02-24T15:05:05.557Z,14.70
2018-02-24T15:07:33.758Z,14.20
2018-02-24T15:10:02.236Z,14.37
2018-02-24T15:12:30.624Z,15.20
2018-02-24T15:14:59.113Z,13.73
2018-02-24T15:17:28.107Z,13.47
2018-02-24T15:19:56.416Z,14.70
2018-02-24T15:22:25.377Z,14.63
2018-02-24T15:24:53.737Z,13.73
2018-02-24T15:27:22.014Z,13.77
2018-02-24T15:29:50.421Z,13.70
2018-02-24T15:32:19.432Z,15.03
2018-02-24T15:34:48.450Z,15.93
2018-02-24T15:37:16.678Z,14.37
2018-02-24T15:39:45.646Z,13.80
2018-02-24T15:42:13.927Z,13.80
2018-02-24T15:44:42.125Z,13.60
2018-02-24T15:47:11.091Z,13.37
2018-02-24T15:49:39.535Z,13.80
2018-02-24T15:52:07.738Z,12.23
2018-02-24T15:54:35.933Z,12.13
2018-02-24T15:57:04.997Z,13.30
2018-02-24T15:59:33.261Z,12.73
2018-02-24T16:02:01.542Z,13.17
2018-02-24T16:04:29.874Z,11.83
2018-02-24T16:06:58.117Z,15.93
2018-02-24T16:09:26.387Z,14.07
2018-02-24T16:11:54.654Z,12.20
2018-02-24T16:14:22.980Z,11.60
2018-02-24T16:16:52.040Z,11.37
2018-02-24T16:19:20.319Z,11.77
2018-02-24T16:21:48.577Z,11.87
2018-02-24T16:24:16.796Z,11.53
2018-02-24T16:26:45.798Z,11.53
2018-02-24T16:29:14.769Z,11.40
2018-02-24T16:31:42.998Z,11.00
2018-02-24T16:34:11.300Z,11.33
2018-02-24T16:36:39.545Z,11.57
2018-02-24T16:39:07.762Z,11.53
2018-02-24T16:41:35.997Z,12.70
2018-02-24T16:44:04.269Z,11.20
2018-02-24T16:46:33.262Z,11.57
2018-02-24T16:49:01.495Z,11.30
2018-02-24T16:51:29.709Z,10.23
2018-02-24T16:53:57.946Z,11.03
2018-02-24T16:56:26.188Z,10.57
2018-02-24T17:03:21.162Z,12.10
2018-02-24T17:05:50.133Z,11.73
2018-02-24T17:08:18.379Z,11.67
2018-02-24T17:10:46.629Z,11.50
2018-02-24T17:13:14.850Z,12.33
2018-02-24T17:15:43.053Z,11.90
2018-02-24T17:18:12.109Z,11.87
2018-02-24T17:20:40.320Z,11.97
2018-02-24T17:23:09.365Z,11.63
2018-02-24T17:25:38.877Z,12.00
2018-02-24T17:28:07.141Z,11.47
2018-02-24T17:30:35.344Z,11.53
2018-02-24T17:33:03.671Z,11.10
2018-02-24T17:35:32.710Z,10.90
2018-02-24T17:38:01.041Z,11.77
2018-02-24T17:40:30.125Z,11.90
2018-02-24T17:42:58.328Z,11.67
2018-02-24T17:45:26.589Z,11.63
2018-02-24T17:47:54.845Z,11.33
2018-02-24T17:50:23.914Z,11.83
2018-02-24T17:52:52.151Z,11.40
2018-02-24T17:55:20.438Z,10.67
2018-02-24T17:57:48.658Z,11.37
2018-02-24T18:00:16.973Z,11.77
2018-02-24T18:02:46.070Z,11.60
2018-02-24T18:05:14.286Z,11.93
2018-02-24T18:07:42.547Z,11.63
2018-02-24T18:10:10.806Z,11.40
2018-02-24T18:12:39.138Z,11.47
2018-02-24T18:15:07.345Z,12.47
2018-02-24T18:17:35.617Z,11.10
2018-02-24T18:20:04.667Z,12.43
2018-02-24T18:22:32.872Z,12.40
2018-02-24T18:25:01.930Z,11.73
2018-02-24T18:27:30.141Z,11.57
2018-02-24T18:29:59.189Z,12.10
2018-02-24T18:32:27.489Z,12.13
2018-02-24T18:34:55.734Z,11.83
2018-02-24T18:37:24.769Z,11.87
2018-02-24T18:39:53.018Z,12.47
2018-02-24T18:42:21.281Z,12.97
2018-02-24T18:44:49.477Z,12.37
2018-02-24T18:47:17.811Z,12.23
2018-02-24T18:49:46.052Z,12.20
2018-02-24T18:52:14.285Z,12.83
2018-02-24T18:54:42.562Z,13.10
2018-02-24T18:57:10.797Z,12.93
2018-02-24T18:59:39.775Z,12.00
2018-02-24T19:02:08.078Z,11.83
2018-02-24T19:04:36.327Z,12.97
2018-02-24T19:07:04.525Z,12.53
2018-02-24T19:09:32.792Z,13.30
2018-02-24T19:12:01.769Z,13.17
2018-02-24T19:14:29.980Z,13.13
2018-02-24T19:16:58.969Z,13.40
2018-02-24T19:19:27.194Z,12.70
2018-02-24T19:21:55.401Z,12.60
2018-02-24T19:24:24.437Z,12.90
2018-02-24T19:26:52.655Z,13.40
2018-02-24T19:29:20.850Z,13.00
2018-02-24T19:31:49.904Z,12.43
2018-02-24T19:34:18.097Z,13.23
2018-02-24T19:36:46.344Z,13.40
2018-02-24T19:39:14.586Z,13.67
2018-02-24T19:41:42.811Z,13.10
2018-02-24T19:44:11.077Z,13.30
2018-02-24T19:46:39.321Z,13.47
2018-02-24T19:49:07.558Z,13.90
2018-02-24T19:51:36.533Z,13.57
2018-02-24T19:54:04.780Z,12.63
2018-02-24T19:56:33.053Z,13.90
2018-02-24T19:59:01.265Z,13.53
2018-02-24T20:01:29.493Z,13.23
2018-02-24T20:03:57.767Z,13.67
2018-02-24T20:06:26.544Z,14.13
2018-02-24T20:08:54.826Z,14.00
2018-02-24T20:11:23.033Z,14.60
2018-02-24T20:13:51.251Z,14.30
2018-02-24T20:16:19.530Z,14.10
2018-02-24T20:18:48.506Z,14.27
2018-02-24T20:21:16.722Z,13.23
2018-02-24T20:23:44.969Z,13.80
2018-02-24T20:28:48.661Z,14.03
2018-02-24T20:31:16.879Z,14.43
2018-02-24T20:33:45.861Z,15.00
2018-02-24T20:36:14.948Z,15.50
2018-02-24T20:38:43.921Z,15.23
2018-02-24T20:41:12.121Z,15.00
2018-02-24T20:43:41.165Z,15.00
2018-02-24T20:46:09.389Z,15.27
2018-02-24T20:48:38.360Z,14.27
2018-02-24T20:51:06.725Z,14.70
2018-02-24T20:53:35.040Z,14.53
2018-02-24T20:56:03.377Z,13.93
2018-02-24T20:58:31.654Z,14.97
2018-02-24T21:01:00.015Z,14.90
2018-02-24T21:03:28.622Z,14.93
2018-02-24T21:05:56.808Z,14.57
2018-02-24T21:08:25.011Z,14.97
2018-02-24T21:10:54.003Z,15.17
2018-02-24T21:13:22.999Z,15.23
2018-02-24T21:15:51.972Z,15.33
2018-02-24T21:18:20.166Z,15.30
2018-02-24T21:20:49.238Z,15.20
2018-02-24T21:23:17.501Z,14.47
2018-02-24T21:25:45.733Z,15.37
2018-02-24T21:28:14.196Z,15.07
2018-02-24T21:30:43.234Z,16.07
2018-02-24T21:33:11.440Z,14.77
2018-02-24T21:35:39.691Z,15.57
2018-02-24T21:38:07.913Z,15.63
2018-02-24T21:40:36.165Z,16.03
2018-02-24T21:43:04.439Z,15.10
2018-02-24T21:45:32.868Z,15.43
2018-02-24T21:48:01.602Z,16.10
2018-02-24T21:50:29.850Z,15.77
2018-02-24T21:52:58.060Z,16.10
2018-02-24T21:55:26.280Z,15.77
2018-02-24T21:57:54.697Z,16.03
2018-02-24T22:00:22.956Z,14.93
2018-02-24T22:02:51.196Z,15.97
2018-02-24T22:05:20.281Z,15.77
2018-02-24T22:07:49.617Z,15.87
2018-02-24T22:10:19.064Z,16.50
2018-02-24T22:12:47.381Z,16.67
2018-02-24T22:15:16.450Z,14.97
2018-02-24T22:17:44.677Z,16.20
2018-02-24T22:20:12.916Z,16.10
2018-02-24T22:22:41.899Z,16.97
2018-02-24T22:25:10.898Z,16.63
2018-02-24T22:27:39.931Z,17.47
2018-02-24T22:30:08.158Z,17.70
2018-02-24T22:32:37.128Z,17.90
2018-02-24T22:35:05.368Z,17.53
2018-02-24T22:37:33.584Z,17.67
2018-02-24T22:40:01.811Z,17.50
2018-02-24T22:42:30.060Z,18.57
2018-02-24T22:44:58.262Z,17.93
2018-02-24T22:47:26.465Z,18.00
2018-02-24T22:49:54.746Z,19.13
2018-02-24T22:52:22.951Z,19.23
2018-02-24T22:54:51.917Z,18.90
2018-02-24T22:57:20.187Z,18.57
2018-02-24T22:59:49.088Z,20.80
2018-02-24T23:02:18.036Z,19.43
2018-02-24T23:04:47.063Z,19.80
2018-02-24T23:07:15.340Z,21.37
2018-02-24T23:09:43.586Z,20.97
2018-02-24T23:12:12.623Z,19.50
2018-02-24T23:14:40.852Z,20.70
2018-02-24T23:17:09.813Z,19.97
2018-02-24T23:19:38.134Z,21.13
2018-02-24T23:22:06.393Z,21.57
2018-02-24T23:24:36.857Z,20.67
2018-02-24T23:27:05.308Z,20.33
2018-02-24T23:29:33.702Z,22.63
2018-02-24T23:32:01.902Z,20.83
2018-02-24T23:34:30.231Z,22.47
2018-02-24T23:36:59.940Z,21.83
2018-02-24T23:39:28.987Z,21.60
2018-02-24T23:41:57.253Z,22.13
2018-02-24T23:44:25.524Z,21.47
2018-02-24T23:46:54.485Z,21.03
2018-02-24T23:49:23.529Z,21.83
2018-02-24T23:51:51.744Z,21.37
2018-02-24T23:54:20.800Z,20.83
2018-02-24T23:56:49.096Z,21.53
2018-02-24T23:59:17.502Z,21.57
